Time;durP1;ratioP1;P1;durP2;ratioP2;P2;SDS_P1;SDS_P2;PMS_P1;PMS_P2;Temp;Humidity;BMP_temperature;BMP_pressure;BME280_temperature;BME280_humidity;BME280_pressure;Samples;Min_cycle;Max_cycle;Signal;HPM_P1;HPM_P2
2022/10/06 00:01:25;;;;;;;8.20;2.27;;;13.30;99.90;;;;;;5060117;28;20200;-61
2022/10/06 00:03:55;;;;;;;8.03;2.07;;;13.20;99.90;;;;;;5065072;28;20297;-61
2022/10/06 00:06:23;;;;;;;6.97;2.10;;;13.20;99.90;;;;;;5069386;28;20227;-61
2022/10/06 00:08:51;;;;;;;8.97;2.20;;;13.10;99.90;;;;;;5067923;28;20192;-61
2022/10/06 00:11:20;;;;;;;9.00;2.00;;;13.10;99.90;;;;;;5075667;28;20544;-61
2022/10/06 00:13:48;;;;;;;8.03;2.13;;;13.10;99.90;;;;;;5065770;28;20196;-60
2022/10/06 00:16:21;;;;;;;6.07;2.40;;;13.00;99.90;;;;;;5067435;28;20209;-60
2022/10/06 00:18:49;;;;;;;11.30;2.43;;;13.00;99.90;;;;;;5063754;28;20236;-61
2022/10/06 00:21:19;;;;;;;12.20;2.40;;;12.90;99.90;;;;;;5066670;28;20643;-61
2022/10/06 00:23:47;;;;;;;6.63;2.10;;;12.90;99.90;;;;;;5097578;28;20203;-61
2022/10/06 00:26:16;;;;;;;9.90;2.10;;;12.90;99.90;;;;;;5063139;28;20205;-60
2022/10/06 00:28:46;;;;;;;14.07;2.57;;;12.80;99.90;;;;;;5062485;28;20270;-61
2022/10/06 00:31:15;;;;;;;13.23;2.33;;;12.80;99.90;;;;;;5062543;28;20216;-61
2022/10/06 00:33:44;;;;;;;10.07;2.00;;;12.80;99.90;;;;;;5072563;28;20223;-61
2022/10/06 00:36:12;;;;;;;8.07;2.43;;;12.70;99.90;;;;;;5065625;28;20216;-60
2022/10/06 00:38:42;;;;;;;9.13;2.07;;;12.70;99.90;;;;;;5070204;28;20242;-61
2022/10/06 00:41:13;;;;;;;14.70;2.47;;;12.70;99.90;;;;;;5065637;28;20219;-61
2022/10/06 00:43:52;;;;;;;11.50;2.33;;;12.70;99.90;;;;;;5065848;28;20201;-61
2022/10/06 00:46:33;;;;;;;11.93;2.47;;;12.70;99.90;;;;;;5063810;28;20205;-61
2022/10/06 00:49:07;;;;;;;19.77;2.73;;;12.70;99.90;;;;;;5068400;28;20222;-61
2022/10/06 00:51:38;;;;;;;11.43;2.53;;;12.70;99.90;;;;;;5082295;28;20283;-61
2022/10/06 00:54:08;;;;;;;14.03;2.60;;;12.60;99.90;;;;;;5063124;28;20192;-61
2022/10/06 00:56:39;;;;;;;9.87;2.37;;;12.60;99.90;;;;;;5063700;28;20622;-61
2022/10/06 00:59:10;;;;;;;9.43;2.40;;;12.50;99.90;;;;;;5067229;28;20207;-61
2022/10/06 01:01:41;;;;;;;14.43;2.13;;;12.50;99.90;;;;;;5066868;28;20192;-61
2022/10/06 01:04:12;;;;;;;12.73;2.57;;;12.40;99.90;;;;;;5063683;28;20222;-62
2022/10/06 01:06:46;;;;;;;9.73;2.13;;;12.40;99.90;;;;;;5066395;28;20702;-61
2022/10/06 01:09:17;;;;;;;21.33;3.37;;;12.40;99.90;;;;;;5069456;28;20224;-61
2022/10/06 01:11:53;;;;;;;17.57;2.63;;;12.40;99.90;;;;;;5063311;28;20207;-61
2022/10/06 01:14:23;;;;;;;13.80;2.63;;;12.30;99.90;;;;;;5067238;28;20215;-60
2022/10/06 01:16:58;;;;;;;9.77;2.33;;;12.30;99.90;;;;;;5067038;28;20549;-60
2022/10/06 01:19:39;;;;;;;12.13;2.47;;;12.20;99.90;;;;;;5078659;28;20223;-61
2022/10/06 01:22:09;;;;;;;12.07;2.87;;;12.20;99.90;;;;;;5074577;28;20200;-61
2022/10/06 01:24:39;;;;;;;13.57;3.13;;;12.20;99.90;;;;;;5067096;28;20546;-61
2022/10/06 01:27:09;;;;;;;13.27;2.77;;;12.20;99.90;;;;;;5070399;28;20202;-61
2022/10/06 01:29:38;;;;;;;13.53;2.43;;;12.10;99.90;;;;;;5064722;28;20524;-61
2022/10/06 01:32:07;;;;;;;14.77;3.03;;;12.10;99.90;;;;;;5069447;28;20192;-61
2022/10/06 01:34:35;;;;;;;15.27;2.77;;;12.00;99.90;;;;;;5071377;28;20196;-61
2022/10/06 01:37:04;;;;;;;16.13;3.37;;;12.00;99.90;;;;;;5074982;28;20597;-61
2022/10/06 01:39:32;;;;;;;12.43;2.83;;;11.90;99.90;;;;;;5073020;28;20212;-61
2022/10/06 01:42:02;;;;;;;16.67;2.80;;;11.80;99.90;;;;;;5067941;28;20202;-61
2022/10/06 01:44:30;;;;;;;13.97;2.80;;;11.80;99.90;;;;;;5066947;28;20197;-60
2022/10/06 01:46:58;;;;;;;13.23;3.00;;;11.80;99.90;;;;;;5084098;28;20211;-61
2022/10/06 01:49:26;;;;;;;11.30;2.33;;;11.80;99.90;;;;;;5075328;28;20195;-61
2022/10/06 01:51:55;;;;;;;13.83;2.83;;;11.70;99.90;;;;;;5057273;28;20200;-61
2022/10/06 01:54:23;;;;;;;11.53;2.70;;;11.70;99.90;;;;;;5069383;28;20639;-61
2022/10/06 01:56:51;;;;;;;14.17;2.77;;;11.60;99.90;;;;;;5065635;28;20261;-61
2022/10/06 01:59:21;;;;;;;18.57;2.93;;;11.60;99.90;;;;;;5069924;28;20639;-61
2022/10/06 02:01:50;;;;;;;13.10;2.80;;;11.60;99.90;;;;;;5078613;28;20192;-61
2022/10/06 02:04:18;;;;;;;21.07;3.23;;;11.60;99.90;;;;;;5070305;28;20192;-61
2022/10/06 02:06:46;;;;;;;16.40;2.90;;;11.60;99.90;;;;;;5078394;28;20275;-61
2022/10/06 02:09:15;;;;;;;13.03;2.90;;;11.60;99.90;;;;;;5064291;28;20578;-61
2022/10/06 02:11:43;;;;;;;13.20;2.57;;;11.50;99.90;;;;;;5066498;28;20200;-61
2022/10/06 02:14:12;;;;;;;14.57;2.87;;;11.40;99.90;;;;;;5073646;28;20662;-61
2022/10/06 02:16:42;;;;;;;16.57;2.63;;;11.40;99.90;;;;;;5101848;28;20253;-61
2022/10/06 02:19:10;;;;;;;19.70;3.07;;;11.40;99.90;;;;;;5075429;28;20204;-61
2022/10/06 02:21:39;;;;;;;12.63;2.90;;;11.30;99.90;;;;;;5073227;28;20215;-61
2022/10/06 02:24:08;;;;;;;16.13;3.23;;;11.30;99.90;;;;;;5082125;28;20199;-61
2022/10/06 02:26:36;;;;;;;17.20;2.87;;;11.30;99.90;;;;;;5075404;28;20196;-61
2022/10/06 02:29:04;;;;;;;14.80;2.80;;;11.30;99.90;;;;;;5086692;28;20195;-61
2022/10/06 02:31:32;;;;;;;10.80;2.53;;;11.30;99.90;;;;;;5075881;28;20250;-61
2022/10/06 02:34:02;;;;;;;14.83;2.77;;;11.30;99.90;;;;;;5087348;28;20703;-61
2022/10/06 02:36:31;;;;;;;13.20;2.70;;;11.30;99.90;;;;;;5076353;28;20200;-61
2022/10/06 02:38:59;;;;;;;15.60;3.30;;;11.30;99.90;;;;;;5061040;28;20696;-61
2022/10/06 02:41:27;;;;;;;17.43;3.40;;;11.30;99.90;;;;;;5070752;28;20223;-61
2022/10/06 02:43:56;;;;;;;15.17;3.07;;;11.30;99.90;;;;;;5080607;28;20188;-61
2022/10/06 02:46:24;;;;;;;10.83;2.70;;;11.30;99.90;;;;;;5112967;27;20261;-61
2022/10/06 02:48:53;;;;;;;17.07;2.90;;;11.30;99.90;;;;;;5080690;28;20539;-61
2022/10/06 02:51:23;;;;;;;12.97;3.23;;;11.30;99.90;;;;;;5067393;28;20192;-61
2022/10/06 02:53:52;;;;;;;17.67;3.30;;;11.30;99.90;;;;;;5074207;28;20192;-61
2022/10/06 02:56:22;;;;;;;15.20;2.93;;;11.30;99.90;;;;;;5072172;28;20566;-61
2022/10/06 02:58:52;;;;;;;10.77;2.83;;;11.20;99.90;;;;;;5074950;28;20647;-61
2022/10/06 03:01:24;;;;;;;17.47;3.13;;;11.20;99.90;;;;;;5067903;28;20217;-61
2022/10/06 03:03:53;;;;;;;12.20;2.97;;;11.20;99.90;;;;;;5075461;28;20217;-61
2022/10/06 03:06:25;;;;;;;13.60;3.10;;;11.20;99.90;;;;;;5072893;28;20220;-61
2022/10/06 03:08:55;;;;;;;11.20;2.60;;;11.20;99.90;;;;;;5071814;28;20577;-61
2022/10/06 03:11:26;;;;;;;18.93;3.00;;;11.10;99.90;;;;;;5078061;28;20196;-61
2022/10/06 03:13:55;;;;;;;11.57;2.43;;;11.10;99.90;;;;;;5078643;28;20642;-61
2022/10/06 03:16:25;;;;;;;12.43;2.80;;;11.00;99.90;;;;;;5071300;28;20200;-61
2022/10/06 03:18:55;;;;;;;22.20;3.30;;;11.00;99.90;;;;;;5085003;28;20196;-61
2022/10/06 03:21:26;;;;;;;16.17;2.90;;;11.00;99.90;;;;;;5070327;28;20208;-61
2022/10/06 03:23:56;;;;;;;21.47;3.67;;;11.00;99.90;;;;;;5066779;28;20195;-61
2022/10/06 03:26:26;;;;;;;15.20;3.00;;;10.90;99.90;;;;;;5067550;28;20631;-61
2022/10/06 03:28:55;;;;;;;11.73;2.90;;;10.90;99.90;;;;;;5071115;28;20222;-61
2022/10/06 03:31:24;;;;;;;18.87;2.83;;;10.90;99.90;;;;;;5071841;28;20188;-61
2022/10/06 03:33:55;;;;;;;16.93;3.03;;;10.90;99.90;;;;;;5072327;28;20581;-61
2022/10/06 03:36:28;;;;;;;11.80;3.07;;;10.90;99.90;;;;;;5067003;28;20279;-61
2022/10/06 03:38:56;;;;;;;15.50;3.10;;;10.90;99.90;;;;;;5064910;28;20574;-61
2022/10/06 03:41:26;;;;;;;11.40;2.80;;;10.90;99.90;;;;;;5063983;28;20204;-61
2022/10/06 03:43:56;;;;;;;16.23;2.80;;;10.90;99.90;;;;;;5085624;28;20555;-61
2022/10/06 03:46:26;;;;;;;18.60;3.10;;;10.90;99.90;;;;;;5062806;28;20197;-61
2022/10/06 03:48:56;;;;;;;13.37;3.27;;;10.90;99.90;;;;;;5072537;28;20257;-61
2022/10/06 03:51:28;;;;;;;13.60;2.80;;;10.80;99.90;;;;;;5072227;28;20280;-61
2022/10/06 03:53:57;;;;;;;13.23;2.80;;;10.70;99.90;;;;;;5077782;28;20202;-61
2022/10/06 03:56:28;;;;;;;16.80;2.83;;;10.70;99.90;;;;;;5069636;28;20204;-61
2022/10/06 03:58:58;;;;;;;14.93;3.03;;;10.70;99.90;;;;;;5078882;28;20196;-61
2022/10/06 04:01:29;;;;;;;18.00;2.80;;;10.60;99.90;;;;;;5065678;28;20227;-61
2022/10/06 04:03:59;;;;;;;17.40;3.40;;;10.60;99.90;;;;;;5081813;28;20228;-61
2022/10/06 04:06:31;;;;;;;14.50;2.57;;;10.60;99.90;;;;;;5068201;28;20694;-61
2022/10/06 04:08:59;;;;;;;15.50;3.47;;;10.60;99.90;;;;;;5071669;28;20523;-61
2022/10/06 04:11:30;;;;;;;15.93;3.07;;;10.60;99.90;;;;;;5079151;28;20191;-61
2022/10/06 04:14:01;;;;;;;15.03;3.10;;;10.60;99.90;;;;;;5078375;28;20210;-61
2022/10/06 04:16:31;;;;;;;16.53;3.20;;;10.50;99.90;;;;;;5062346;28;20196;-61
2022/10/06 04:19:04;;;;;;;14.27;3.40;;;10.50;99.90;;;;;;5075956;28;20226;-61
2022/10/06 04:21:36;;;;;;;20.07;3.73;;;10.50;99.90;;;;;;5063186;28;20539;-61
2022/10/06 04:24:06;;;;;;;14.07;3.33;;;10.50;99.90;;;;;;5077113;28;20379;-61
2022/10/06 04:26:36;;;;;;;13.90;2.90;;;10.50;99.90;;;;;;5069766;28;20199;-61
2022/10/06 04:29:04;;;;;;;14.33;2.97;;;10.40;99.90;;;;;;5073534;28;20649;-61
2022/10/06 04:31:35;;;;;;;13.47;3.13;;;10.40;99.90;;;;;;5071729;28;20192;-61
2022/10/06 04:34:05;;;;;;;17.50;3.10;;;10.40;99.90;;;;;;5075434;28;20672;-61
2022/10/06 04:36:38;;;;;;;18.10;3.57;;;10.40;99.90;;;;;;5069586;28;20208;-61
2022/10/06 04:39:09;;;;;;;14.57;2.87;;;10.40;99.90;;;;;;5068089;28;20187;-61
2022/10/06 04:41:39;;;;;;;8.73;2.53;;;10.40;99.90;;;;;;5075487;28;20222;-61
2022/10/06 04:44:09;;;;;;;14.63;3.00;;;10.40;99.90;;;;;;5066185;28;20199;-61
2022/10/06 04:46:37;;;;;;;17.77;3.43;;;10.30;99.90;;;;;;5073801;28;20199;-61
2022/10/06 04:49:11;;;;;;;12.53;2.70;;;10.30;99.90;;;;;;5070510;28;20724;-61
2022/10/06 04:51:48;;;;;;;15.53;2.97;;;10.20;99.90;;;;;;5063818;28;20184;-61
2022/10/06 04:54:18;;;;;;;20.90;3.23;;;10.20;99.90;;;;;;5065863;28;20226;-61
2022/10/06 04:56:47;;;;;;;13.10;2.90;;;10.20;99.90;;;;;;5060802;28;20211;-61
2022/10/06 04:59:15;;;;;;;10.77;2.73;;;10.20;99.90;;;;;;5070268;28;20188;-61
2022/10/06 05:01:43;;;;;;;15.50;2.97;;;10.10;99.90;;;;;;5068576;28;20258;-61
2022/10/06 05:04:11;;;;;;;20.87;3.00;;;10.20;99.90;;;;;;5069316;28;20222;-61
2022/10/06 05:06:41;;;;;;;17.67;3.30;;;10.20;99.90;;;;;;5067963;28;20687;-61
2022/10/06 05:09:13;;;;;;;16.73;3.50;;;10.20;99.90;;;;;;5084991;28;20213;-61
2022/10/06 05:11:42;;;;;;;15.83;3.00;;;10.20;99.90;;;;;;5068909;28;20203;-61
2022/10/06 05:14:10;;;;;;;14.30;3.23;;;10.20;99.90;;;;;;5081116;28;20200;-61
2022/10/06 05:16:38;;;;;;;18.17;3.20;;;10.20;99.90;;;;;;5069105;28;20195;-61
2022/10/06 05:19:07;;;;;;;13.83;2.97;;;10.10;99.90;;;;;;5070941;28;20196;-61
2022/10/06 05:21:35;;;;;;;8.83;2.97;;;10.10;99.90;;;;;;5071795;28;20219;-61
2022/10/06 05:24:05;;;;;;;9.93;2.93;;;10.00;99.90;;;;;;5072664;28;20192;-61
2022/10/06 05:26:37;;;;;;;15.87;3.50;;;9.90;99.90;;;;;;5074520;28;20632;-61
2022/10/06 05:29:05;;;;;;;11.47;2.80;;;9.90;99.90;;;;;;5072513;28;20193;-61
2022/10/06 05:31:37;;;;;;;14.50;2.90;;;9.80;99.90;;;;;;5061561;28;20370;-61
2022/10/06 05:34:06;;;;;;;18.63;3.03;;;9.70;99.90;;;;;;5065535;28;20196;-61
2022/10/06 05:36:35;;;;;;;14.37;2.97;;;9.70;99.90;;;;;;5070427;28;20192;-61
2022/10/06 05:39:04;;;;;;;9.30;3.13;;;9.60;99.90;;;;;;5070242;28;20188;-61
2022/10/06 05:41:36;;;;;;;20.40;3.43;;;9.60;99.90;;;;;;5080961;28;20204;-61
2022/10/06 05:44:05;;;;;;;15.23;3.57;;;9.60;99.90;;;;;;5068743;28;20211;-61
2022/10/06 05:46:34;;;;;;;13.80;3.83;;;9.50;99.90;;;;;;5072362;28;20199;-61
2022/10/06 05:49:05;;;;;;;11.53;3.23;;;9.50;99.90;;;;;;5068966;28;20188;-61
2022/10/06 05:51:35;;;;;;;11.20;3.10;;;9.40;99.90;;;;;;5083221;28;20195;-61
2022/10/06 05:54:04;;;;;;;15.53;3.10;;;9.40;99.90;;;;;;5073718;28;20216;-61
2022/10/06 05:56:33;;;;;;;11.70;2.90;;;9.40;99.90;;;;;;5073152;28;20199;-61
2022/10/06 05:59:03;;;;;;;16.03;2.97;;;9.30;99.90;;;;;;5072784;28;20192;-61
2022/10/06 06:01:35;;;;;;;16.77;2.90;;;9.30;99.90;;;;;;5069050;28;20192;-61
2022/10/06 06:04:05;;;;;;;17.17;3.80;;;9.20;99.90;;;;;;5067996;28;20211;-61
2022/10/06 06:06:35;;;;;;;19.93;3.17;;;9.20;99.90;;;;;;5081163;28;20242;-61
2022/10/06 06:09:06;;;;;;;11.73;2.60;;;9.20;99.90;;;;;;5070063;28;20192;-61
2022/10/06 06:11:36;;;;;;;12.87;3.13;;;9.20;99.90;;;;;;5084969;28;20191;-61
2022/10/06 06:14:07;;;;;;;20.83;3.50;;;9.20;99.90;;;;;;5085427;28;20570;-61
2022/10/06 06:16:37;;;;;;;16.23;3.17;;;9.30;99.90;;;;;;5067032;28;20998;-61
2022/10/06 06:19:08;;;;;;;23.10;6.40;;;9.30;99.90;;;;;;5068164;28;20651;-61
2022/10/06 06:21:37;;;;;;;21.00;6.07;;;9.30;99.90;;;;;;5082345;28;21247;-61
2022/10/06 06:24:06;;;;;;;18.70;3.80;;;9.30;99.90;;;;;;5076236;28;20229;-61
2022/10/06 06:26:37;;;;;;;25.23;6.40;;;9.30;99.90;;;;;;5081609;28;20204;-61
2022/10/06 06:29:05;;;;;;;23.07;6.97;;;9.40;99.90;;;;;;5070000;28;20535;-61
2022/10/06 06:31:36;;;;;;;19.53;5.17;;;9.40;99.90;;;;;;5076822;28;20218;-61
2022/10/06 06:34:06;;;;;;;14.93;4.40;;;9.50;99.90;;;;;;5071006;28;20262;-61
2022/10/06 06:36:39;;;;;;;25.97;6.23;;;9.50;99.90;;;;;;5073713;28;20669;-61
2022/10/06 06:39:09;;;;;;;16.80;5.67;;;9.60;99.90;;;;;;5067732;28;20275;-61
2022/10/06 06:41:40;;;;;;;23.73;7.13;;;9.60;99.90;;;;;;5065492;28;20201;-61
2022/10/06 06:44:10;;;;;;;23.97;6.80;;;9.70;99.90;;;;;;5062986;28;20242;-61
2022/10/06 06:46:43;;;;;;;24.17;5.17;;;9.70;99.90;;;;;;5067050;28;20219;-61
2022/10/06 06:49:12;;;;;;;19.90;4.10;;;9.80;99.90;;;;;;5059842;28;20204;-61
2022/10/06 06:51:41;;;;;;;18.73;4.67;;;9.90;99.90;;;;;;5069167;28;20207;-61
2022/10/06 06:54:11;;;;;;;17.07;4.57;;;9.90;99.90;;;;;;5070961;28;20229;-61
2022/10/06 06:56:41;;;;;;;17.03;3.70;;;10.00;99.90;;;;;;5063645;28;20197;-61
2022/10/06 06:59:10;;;;;;;13.53;3.47;;;10.00;99.90;;;;;;5070095;28;20207;-61
2022/10/06 07:01:44;;;;;;;18.63;5.23;;;10.00;99.90;;;;;;5072746;28;20192;-61
2022/10/06 07:04:14;;;;;;;21.43;4.57;;;10.10;99.90;;;;;;5078666;28;20294;-61
2022/10/06 07:06:46;;;;;;;24.77;12.10;;;10.10;99.90;;;;;;5078285;28;20227;-61
2022/10/06 07:09:15;;;;;;;22.00;6.80;;;10.20;99.90;;;;;;5086973;28;20587;-61
2022/10/06 07:11:43;;;;;;;15.50;5.07;;;10.30;99.90;;;;;;5075598;28;20535;-61
2022/10/06 07:14:12;;;;;;;21.60;4.27;;;10.40;99.90;;;;;;5075325;28;20192;-61
2022/10/06 07:25:15;;;;;;;6.57;3.60;;;11.40;99.90;;;;;;5072415;28;20201;-61
2022/10/06 07:27:46;;;;;;;13.07;4.50;;;11.60;99.90;;;;;;5080740;28;20650;-61
2022/10/06 07:30:18;;;;;;;15.37;3.73;;;11.80;99.90;;;;;;5084696;28;20569;-61
2022/10/06 07:32:50;;;;;;;12.37;3.07;;;11.90;99.90;;;;;;5075693;28;20184;-61
2022/10/06 07:35:20;;;;;;;16.77;4.13;;;12.20;99.90;;;;;;5072791;28;20203;-61
2022/10/06 07:37:48;;;;;;;23.57;5.67;;;12.30;99.90;;;;;;5069139;28;20204;-61
2022/10/06 07:40:17;;;;;;;14.30;4.70;;;12.40;99.90;;;;;;5066958;28;20204;-61
2022/10/06 07:42:50;;;;;;;14.43;3.30;;;12.60;99.90;;;;;;5071424;28;20693;-61
2022/10/06 07:45:40;;;;;;;10.33;3.10;;;12.70;99.90;;;;;;5065311;28;20254;-61
2022/10/06 07:48:13;;;;;;;13.47;3.70;;;12.80;99.90;;;;;;5070522;28;20218;-61
2022/10/06 07:50:43;;;;;;;6.63;2.57;;;13.00;99.90;;;;;;5063402;28;20204;-61
2022/10/06 07:53:11;;;;;;;8.97;2.53;;;13.10;99.90;;;;;;5068718;28;20531;-61
2022/10/06 07:55:41;;;;;;;14.90;3.67;;;13.20;99.90;;;;;;5062830;28;20192;-61
2022/10/06 07:58:13;;;;;;;17.27;8.03;;;13.30;99.90;;;;;;5063352;28;20521;-61
2022/10/06 08:00:42;;;;;;;12.83;3.80;;;13.50;99.90;;;;;;5074394;28;20274;-61
2022/10/06 08:03:16;;;;;;;10.37;3.20;;;13.60;99.90;;;;;;5064936;28;20213;-61
2022/10/06 08:05:45;;;;;;;11.07;3.30;;;13.80;99.90;;;;;;5071876;28;20766;-61
2022/10/06 08:08:15;;;;;;;9.27;2.90;;;13.90;99.90;;;;;;5058928;28;20208;-61
2022/10/06 08:10:43;;;;;;;8.97;2.37;;;13.90;99.90;;;;;;5085218;28;20216;-61
2022/10/06 08:13:12;;;;;;;12.03;2.77;;;14.00;99.90;;;;;;5058725;28;20736;-61
2022/10/06 08:15:40;;;;;;;13.90;3.00;;;14.00;99.90;;;;;;5066979;28;20203;-61
2022/10/06 08:18:08;;;;;;;16.50;3.33;;;13.90;99.90;;;;;;5060962;28;20533;-61
2022/10/06 08:20:58;;;;;;;11.33;2.83;;;13.90;99.90;;;;;;5070964;28;20640;-61
2022/10/06 08:23:26;;;;;;;8.10;2.30;;;14.00;99.90;;;;;;5071132;28;20216;-61
2022/10/06 08:25:55;;;;;;;7.33;2.27;;;14.00;99.90;;;;;;5066673;28;20196;-61
2022/10/06 08:28:24;;;;;;;11.00;3.70;;;14.00;99.90;;;;;;5071194;28;20555;-60
2022/10/06 08:30:53;;;;;;;24.67;9.37;;;14.10;99.90;;;;;;5070076;28;20256;-61
2022/10/06 08:33:22;;;;;;;11.97;2.50;;;14.20;99.90;;;;;;5100468;28;20200;-61
2022/10/06 08:35:50;;;;;;;12.40;2.37;;;14.30;99.90;;;;;;5076552;28;20215;-61
2022/10/06 08:38:20;;;;;;;10.03;2.60;;;14.30;99.90;;;;;;5065367;28;20199;-61
2022/10/06 08:40:49;;;;;;;7.33;2.43;;;14.30;99.90;;;;;;5064779;28;20210;-61
2022/10/06 08:43:22;;;;;;;14.93;2.40;;;14.50;99.90;;;;;;5066282;28;20365;-61
2022/10/06 08:45:58;;;;;;;8.30;2.10;;;14.70;99.90;;;;;;5067805;28;20310;-61
2022/10/06 08:48:35;;;;;;;8.63;2.33;;;14.80;99.90;;;;;;5080812;28;20191;-61
2022/10/06 08:51:14;;;;;;;38.27;13.77;;;14.80;99.90;;;;;;5068419;28;20246;-61
2022/10/06 08:53:54;;;;;;;15.63;4.70;;;14.90;99.90;;;;;;5065189;28;20196;-61
2022/10/06 08:56:25;;;;;;;9.83;3.70;;;15.10;99.90;;;;;;5062141;28;20551;-61
2022/10/06 08:58:56;;;;;;;14.37;3.83;;;15.10;99.90;;;;;;5061439;28;20192;-61
2022/10/06 09:01:26;;;;;;;11.03;2.70;;;15.10;99.90;;;;;;5065415;28;20197;-61
2022/10/06 09:04:00;;;;;;;7.90;2.20;;;15.20;99.90;;;;;;5067851;28;20213;-61
2022/10/06 09:06:40;;;;;;;25.27;10.17;;;15.20;99.90;;;;;;5064669;28;20236;-61
2022/10/06 09:09:24;;;;;;;9.10;2.23;;;15.30;99.90;;;;;;5062671;28;20216;-61
2022/10/06 09:12:05;;;;;;;7.90;1.83;;;15.30;99.90;;;;;;5095484;28;20197;-61
2022/10/06 09:14:39;;;;;;;9.33;2.30;;;15.30;99.90;;;;;;5055505;28;20205;-61
2022/10/06 09:17:12;;;;;;;9.53;1.93;;;15.30;99.90;;;;;;5063215;28;20680;-61
2022/10/06 09:19:46;;;;;;;5.77;2.07;;;15.30;99.90;;;;;;5060219;28;20199;-61
2022/10/06 09:22:19;;;;;;;9.57;2.20;;;15.50;99.90;;;;;;5069548;28;20212;-61
2022/10/06 09:24:54;;;;;;;8.57;2.50;;;15.60;99.90;;;;;;5050105;28;20217;-61
2022/10/06 09:27:31;;;;;;;9.07;2.10;;;15.60;99.90;;;;;;5067249;28;20195;-61
2022/10/06 09:30:03;;;;;;;11.67;2.23;;;15.60;99.90;;;;;;5064701;28;20197;-61
2022/10/06 09:32:32;;;;;;;5.27;2.30;;;15.60;99.90;;;;;;5066748;28;20196;-61
2022/10/06 09:35:03;;;;;;;7.67;2.17;;;15.50;99.90;;;;;;5057005;28;20200;-61
2022/10/06 09:37:54;;;;;;;7.30;2.00;;;15.60;99.90;;;;;;5067933;28;20200;-61
2022/10/06 09:40:38;;;;;;;6.83;2.23;;;15.70;99.90;;;;;;5057014;28;20211;-61
2022/10/06 09:43:19;;;;;;;6.03;2.33;;;15.90;99.90;;;;;;5060299;28;20209;-61
2022/10/06 09:45:50;;;;;;;6.90;2.17;;;16.00;99.90;;;;;;5065174;28;20558;-61
2022/10/06 09:48:21;;;;;;;6.87;1.90;;;16.10;99.90;;;;;;5069164;28;20193;-61
2022/10/06 09:51:12;;;;;;;11.97;2.70;;;16.20;99.90;;;;;;5069110;28;20650;-61
2022/10/06 09:53:42;;;;;;;12.97;2.53;;;16.30;99.90;;;;;;5059719;28;20190;-61
2022/10/06 09:56:17;;;;;;;7.70;2.13;;;16.30;99.90;;;;;;5058423;28;20197;-61
2022/10/06 09:58:57;;;;;;;7.03;2.17;;;16.50;99.90;;;;;;5069317;28;20203;-61
2022/10/06 10:01:28;;;;;;;6.00;2.20;;;16.50;99.90;;;;;;5069156;28;20289;-61
2022/10/06 10:03:59;;;;;;;6.93;1.80;;;16.50;99.90;;;;;;5069156;28;20209;-61
2022/10/06 10:06:48;;;;;;;9.03;2.10;;;16.70;99.90;;;;;;5064122;28;20708;-62
2022/10/06 10:09:36;;;;;;;6.83;1.97;;;16.70;99.90;;;;;;5069221;28;20690;-61
2022/10/06 10:12:26;;;;;;;5.23;1.80;;;16.60;99.90;;;;;;5100609;28;20192;-61
2022/10/06 10:14:58;;;;;;;5.50;2.20;;;16.40;99.90;;;;;;5066699;28;20195;-61
2022/10/06 10:17:37;;;;;;;7.23;2.03;;;16.50;99.90;;;;;;5061827;28;20203;-61
2022/10/06 10:20:22;;;;;;;9.43;2.20;;;16.50;99.90;;;;;;5071088;28;20211;-61
2022/10/06 10:22:50;;;;;;;5.90;1.80;;;16.60;99.90;;;;;;5069400;28;20213;-61
2022/10/06 10:25:44;;;;;;;6.37;1.80;;;16.70;99.90;;;;;;5077665;28;20218;-61
2022/10/06 10:28:26;;;;;;;5.57;2.00;;;16.90;99.90;;;;;;5066406;28;20203;-61
2022/10/06 10:31:02;;;;;;;8.63;2.03;;;16.90;99.90;;;;;;5071768;28;20772;-61
2022/10/06 10:33:40;;;;;;;8.07;2.10;;;17.10;99.90;;;;;;5078201;28;20230;-61
2022/10/06 10:36:34;;;;;;;6.10;1.80;;;17.10;99.90;;;;;;5068149;28;20275;-61
2022/10/06 10:39:09;;;;;;;7.63;2.57;;;17.20;99.90;;;;;;5064529;28;20266;-61
2022/10/06 10:41:46;;;;;;;7.63;2.17;;;17.20;99.90;;;;;;5067125;28;20700;-62
2022/10/06 10:44:25;;;;;;;9.63;3.03;;;17.20;99.90;;;;;;5069737;28;20219;-61
2022/10/06 10:46:55;;;;;;;4.40;1.83;;;17.20;99.90;;;;;;5063504;28;20188;-61
2022/10/06 10:49:28;;;;;;;10.50;2.67;;;17.10;99.90;;;;;;5065465;28;20269;-62
2022/10/06 10:52:03;;;;;;;52.67;24.93;;;17.20;99.90;;;;;;5067168;28;20199;-61
2022/10/06 10:54:39;;;;;;;4.80;1.47;;;17.20;99.90;;;;;;5072455;28;20201;-61
2022/10/06 10:57:15;;;;;;;2.60;1.70;;;17.50;99.90;;;;;;5064029;28;20206;-61
2022/10/06 10:59:55;;;;;;;5.80;2.10;;;17.50;99.90;;;;;;5064972;28;20196;-61
2022/10/06 11:02:24;;;;;;;5.27;1.97;;;17.60;99.90;;;;;;5100607;27;20196;-61
2022/10/06 11:04:58;;;;;;;4.13;2.00;;;17.60;99.90;;;;;;5063823;28;20204;-62
2022/10/06 11:07:33;;;;;;;3.57;1.70;;;17.80;99.90;;;;;;5072692;28;20235;-62
2022/10/06 11:10:09;;;;;;;1.60;1.47;;;17.90;99.90;;;;;;5066949;28;20211;-62
2022/10/06 11:13:06;;;;;;;2.73;1.50;;;18.00;99.90;;;;;;5064713;28;20195;-62
2022/10/06 11:15:50;;;;;;;6.50;1.27;;;18.10;99.90;;;;;;5068981;28;20187;-62
2022/10/06 11:18:29;;;;;;;7.03;4.60;;;18.20;99.90;;;;;;5067834;28;20279;-62
2022/10/06 11:21:02;;;;;;;2.83;1.30;;;18.40;99.90;;;;;;5071251;28;20234;-62
2022/10/06 11:23:53;;;;;;;3.53;2.80;;;18.50;99.90;;;;;;5070606;28;20195;-62
2022/10/06 11:26:44;;;;;;;3.30;1.40;;;18.50;99.90;;;;;;5064770;28;20216;-62
2022/10/06 11:29:29;;;;;;;5.90;2.00;;;18.50;99.90;;;;;;5068113;28;20211;-62
2022/10/06 11:32:05;;;;;;;1.93;1.40;;;18.70;99.90;;;;;;5070105;28;20216;-62
2022/10/06 11:34:35;;;;;;;4.87;2.37;;;18.70;99.90;;;;;;5067417;28;20191;-62
2022/10/06 11:37:19;;;;;;;6.93;4.47;;;18.90;99.90;;;;;;5077361;28;20537;-62
2022/10/06 11:39:57;;;;;;;4.20;1.60;;;19.40;99.90;;;;;;5063917;28;20715;-62
2022/10/06 11:42:34;;;;;;;6.90;2.60;;;19.70;99.90;;;;;;5069904;28;20572;-62
2022/10/06 11:45:11;;;;;;;3.50;1.80;;;19.70;99.90;;;;;;5063847;28;20204;-62
2022/10/06 11:47:57;;;;;;;2.93;1.50;;;19.80;99.90;;;;;;5071812;28;20660;-62
2022/10/06 11:50:33;;;;;;;1.07;0.97;;;19.70;99.90;;;;;;5070089;28;20204;-62
2022/10/06 11:53:02;;;;;;;6.53;5.70;;;19.50;99.90;;;;;;5078380;28;20191;-62
2022/10/06 11:55:30;;;;;;;2.17;1.27;;;19.20;99.90;;;;;;5071323;28;20196;-62
2022/10/06 11:58:16;;;;;;;5.70;3.07;;;19.20;99.90;;;;;;5069910;28;20197;-62
2022/10/06 12:01:06;;;;;;;5.40;1.57;;;19.40;99.90;;;;;;5064062;28;20563;-62
2022/10/06 12:04:11;;;;;;;4.20;2.10;;;19.60;99.90;;;;;;5068604;28;20211;-61
2022/10/06 12:06:59;;;;;;;3.70;1.80;;;19.60;99.90;;;;;;5061823;28;20237;-61
2022/10/06 12:09:48;;;;;;;3.90;1.50;;;19.50;99.90;;;;;;5068259;28;20579;-62
2022/10/06 12:12:54;;;;;;;2.30;1.40;;;19.50;99.90;;;;;;5066642;28;20196;-61
2022/10/06 12:16:17;;;;;;;5.43;1.80;;;19.60;99.90;;;;;;5074657;28;20223;-61
2022/10/06 12:19:18;;;;;;;5.23;1.37;;;19.60;99.90;;;;;;5069064;28;20197;-61
2022/10/06 12:22:00;;;;;;;6.77;1.57;;;19.70;99.90;;;;;;5065414;28;20309;-61
2022/10/06 12:24:42;;;;;;;5.57;1.70;;;19.60;99.90;;;;;;5071175;28;20198;-62
2022/10/06 12:27:33;;;;;;;5.60;2.60;;;19.80;99.90;;;;;;5051727;28;20624;-61
2022/10/06 12:30:05;;;;;;;7.87;2.13;;;19.80;99.90;;;;;;5060291;28;20196;-62
2022/10/06 12:32:46;;;;;;;6.93;1.83;;;19.70;99.90;;;;;;5064122;28;20204;-61
2022/10/06 12:35:31;;;;;;;6.30;3.77;;;19.70;99.90;;;;;;5062526;28;20192;-62
2022/10/06 12:38:03;;;;;;;5.37;1.50;;;19.80;99.90;;;;;;5062159;28;20210;-62
2022/10/06 12:40:46;;;;;;;5.37;1.70;;;19.60;99.90;;;;;;5066487;28;20542;-62
2022/10/06 12:43:57;;;;;;;2.87;1.67;;;19.60;99.90;;;;;;5068675;28;20642;-61
2022/10/06 12:46:44;;;;;;;3.90;1.60;;;19.50;99.90;;;;;;5065557;28;20216;-61
2022/10/06 12:49:44;;;;;;;6.43;1.67;;;19.40;99.90;;;;;;5066608;28;20200;-61
2022/10/06 12:52:27;;;;;;;4.53;1.60;;;19.10;99.90;;;;;;5063876;28;20211;-61
2022/10/06 12:55:06;;;;;;;3.90;1.40;;;19.20;99.90;;;;;;5073212;28;20199;-61
2022/10/06 12:57:45;;;;;;;6.77;1.83;;;19.40;99.90;;;;;;5073409;28;20195;-61
2022/10/06 13:00:24;;;;;;;6.23;1.80;;;19.40;99.90;;;;;;5073111;28;21254;-61
2022/10/06 13:02:59;;;;;;;7.40;1.77;;;19.30;99.90;;;;;;5067976;28;20253;-61
2022/10/06 13:05:30;;;;;;;5.17;1.60;;;19.40;99.90;;;;;;5077943;28;20712;-61
2022/10/06 13:08:00;;;;;;;8.83;2.00;;;19.50;99.90;;;;;;5085552;28;20566;-61
2022/10/06 13:10:29;;;;;;;4.57;1.40;;;19.60;99.90;;;;;;5065545;28;20569;-61
2022/10/06 13:12:59;;;;;;;7.33;2.00;;;19.60;99.90;;;;;;5069719;28;20199;-61
2022/10/06 13:15:29;;;;;;;11.07;2.33;;;19.50;99.90;;;;;;5071841;28;20185;-61
2022/10/06 13:18:12;;;;;;;4.40;1.87;;;19.40;99.90;;;;;;5065056;28;20194;-61
2022/10/06 13:20:47;;;;;;;8.70;2.03;;;19.40;99.90;;;;;;5061242;28;20306;-61